createdAt,value
2019-05-23T00:00:48.440Z,0.00
2019-05-23T00:01:48.474Z,0.00
2019-05-23T00:02:48.428Z,0.00
2019-05-23T00:03:48.396Z,0.00
2019-05-23T00:04:48.384Z,0.00
2019-05-23T00:05:48.381Z,0.00
2019-05-23T00:06:48.391Z,0.00
2019-05-23T00:07:48.385Z,0.00
2019-05-23T00:08:48.357Z,0.00
2019-05-23T00:09:48.368Z,0.00
2019-05-23T00:10:48.317Z,0.00
2019-05-23T00:11:48.312Z,0.00
2019-05-23T00:12:48.441Z,0.00
2019-05-23T00:13:48.404Z,0.00
2019-05-23T00:14:48.870Z,0.00
2019-05-23T00:15:48.267Z,0.00
2019-05-23T00:16:48.252Z,0.00
2019-05-23T00:17:48.243Z,0.00
2019-05-23T00:18:59.985Z,0.00
2019-05-23T00:19:48.225Z,0.00
2019-05-23T00:20:48.219Z,0.00
2019-05-23T00:21:48.231Z,0.00
2019-05-23T00:22:48.185Z,0.00
2019-05-23T00:23:48.210Z,0.00
2019-05-23T00:24:48.182Z,0.00
2019-05-23T00:25:48.171Z,0.00
2019-05-23T00:26:48.147Z,0.00
2019-05-23T00:27:48.141Z,0.00
2019-05-23T00:28:48.235Z,0.00
2019-05-23T00:29:48.188Z,0.00
2019-05-23T00:30:48.127Z,0.00
2019-05-23T00:31:48.088Z,0.00
2019-05-23T00:32:48.087Z,0.00
2019-05-23T00:33:48.066Z,0.00
2019-05-23T00:34:48.058Z,0.00
2019-05-23T00:35:48.084Z,0.00
2019-05-23T00:36:48.029Z,0.00
2019-05-23T00:37:48.025Z,0.00
2019-05-23T00:38:48.022Z,0.00
2019-05-23T00:39:48.913Z,0.00
2019-05-23T00:40:48.005Z,0.00
2019-05-23T00:41:47.985Z,0.00
2019-05-23T00:42:47.976Z,0.00
2019-05-23T00:43:47.980Z,0.00
2019-05-23T00:44:48.007Z,0.00
2019-05-23T00:45:47.974Z,0.00
2019-05-23T00:46:47.942Z,0.00
2019-05-23T00:47:47.910Z,0.00
2019-05-23T00:48:47.903Z,0.00
2019-05-23T00:50:00.967Z,0.00
2019-05-23T00:50:47.913Z,0.00
2019-05-23T00:51:47.889Z,0.00
2019-05-23T00:52:47.896Z,0.00
2019-05-23T00:53:47.865Z,0.00
2019-05-23T00:54:47.837Z,0.00
2019-05-23T00:55:47.830Z,0.00
2019-05-23T00:56:47.836Z,0.00
2019-05-23T00:57:47.967Z,0.00
2019-05-23T00:58:47.878Z,0.00
2019-05-23T00:59:47.801Z,0.00
2019-05-23T01:00:47.965Z,0.00
2019-05-23T01:01:47.754Z,0.00
2019-05-23T01:02:47.747Z,0.00
2019-05-23T01:03:47.732Z,0.00
2019-05-23T01:04:47.723Z,0.00
2019-05-23T01:05:47.713Z,0.00
2019-05-23T01:06:47.792Z,0.00
2019-05-23T01:07:47.689Z,0.00
2019-05-23T01:08:47.681Z,0.00
2019-05-23T01:09:47.668Z,0.00
2019-05-23T01:10:47.655Z,0.00
2019-05-23T01:11:47.682Z,0.00
2019-05-23T01:12:47.637Z,0.00
2019-05-23T01:13:47.624Z,0.00
2019-05-23T01:14:47.620Z,0.00
2019-05-23T01:15:47.598Z,0.00
2019-05-23T01:16:47.585Z,0.00
2019-05-23T01:17:47.584Z,0.00
2019-05-23T01:18:47.564Z,0.00
2019-05-23T01:19:47.554Z,0.00
2019-05-23T01:21:00.130Z,0.00
2019-05-23T01:21:47.530Z,0.00
2019-05-23T01:22:47.562Z,0.00
2019-05-23T01:23:47.515Z,0.00
2019-05-23T01:24:47.498Z,0.00
2019-05-23T01:25:47.500Z,0.00
2019-05-23T01:26:47.483Z,0.00
2019-05-23T01:27:47.474Z,0.00
2019-05-23T01:28:47.492Z,0.00
2019-05-23T01:29:49.969Z,0.00
2019-05-23T01:30:47.438Z,0.00
2019-05-23T01:31:47.425Z,0.00
2019-05-23T01:32:47.413Z,0.00
2019-05-23T01:33:47.405Z,0.00
2019-05-23T01:34:47.402Z,0.00
2019-05-23T01:35:47.377Z,0.00
2019-05-23T01:36:47.376Z,0.00
2019-05-23T01:37:47.366Z,0.00
2019-05-23T01:38:56.072Z,0.00
2019-05-23T01:39:47.365Z,0.00
2019-05-23T01:40:47.331Z,0.00
2019-05-23T01:41:47.329Z,0.00
2019-05-23T01:42:47.313Z,0.00
2019-05-23T01:43:47.445Z,0.00
2019-05-23T01:44:47.381Z,0.00
2019-05-23T01:45:47.990Z,0.00
2019-05-23T01:46:47.277Z,0.00
2019-05-23T01:47:47.370Z,0.00
2019-05-23T01:48:47.240Z,0.00
2019-05-23T01:49:47.269Z,0.00
2019-05-23T01:50:47.222Z,0.00
2019-05-23T01:51:47.241Z,0.00
2019-05-23T01:52:47.198Z,0.00
2019-05-23T01:53:47.192Z,5.62
2019-05-23T01:54:47.174Z,5.62
2019-05-23T01:55:47.181Z,5.62
2019-05-23T01:56:47.166Z,5.62
2019-05-23T01:57:47.158Z,5.62
2019-05-23T01:58:47.136Z,5.62
2019-05-23T01:59:47.134Z,5.62
2019-05-23T02:00:47.111Z,11.25
2019-05-23T02:01:47.113Z,11.25
2019-05-23T02:02:47.088Z,11.25
2019-05-23T02:03:47.074Z,11.25
2019-05-23T02:04:47.108Z,11.25
2019-05-23T02:05:47.055Z,11.25
2019-05-23T02:06:47.041Z,5.62
2019-05-23T02:07:47.149Z,5.62
2019-05-23T02:08:47.979Z,11.25
2019-05-23T02:10:00.034Z,11.25
2019-05-23T02:10:47.544Z,11.25
2019-05-23T02:11:46.990Z,11.25
2019-05-23T02:12:46.993Z,11.25
2019-05-23T02:13:46.984Z,11.25
2019-05-23T02:14:46.964Z,11.25
2019-05-23T02:15:46.958Z,11.25
2019-05-23T02:16:46.960Z,11.25
2019-05-23T02:17:46.943Z,16.88
2019-05-23T02:18:46.916Z,16.88
2019-05-23T02:19:46.905Z,16.88
2019-05-23T02:20:46.938Z,16.88
2019-05-23T02:21:46.882Z,22.50
2019-05-23T02:22:46.876Z,22.50
2019-05-23T02:23:46.875Z,28.12
2019-05-23T02:24:46.904Z,33.75
2019-05-23T02:25:46.838Z,28.12
2019-05-23T02:26:46.843Z,28.12
2019-05-23T02:27:46.828Z,33.75
2019-05-23T02:28:46.826Z,50.62
2019-05-23T02:29:46.794Z,56.25
2019-05-23T02:30:46.902Z,45.00
2019-05-23T02:31:47.021Z,33.75
2019-05-23T02:32:46.781Z,33.75
2019-05-23T02:33:46.748Z,28.12
2019-05-23T02:34:46.746Z,22.50
2019-05-23T02:35:46.735Z,22.50
2019-05-23T02:36:46.736Z,22.50
2019-05-23T02:37:46.709Z,22.50
2019-05-23T02:38:46.700Z,22.50
2019-05-23T02:39:46.695Z,22.50
2019-05-23T02:41:00.553Z,28.12
2019-05-23T02:41:46.692Z,28.12
2019-05-23T02:42:46.675Z,33.75
2019-05-23T02:43:46.655Z,39.38
2019-05-23T02:44:46.646Z,45.00
2019-05-23T02:45:46.648Z,45.00
2019-05-23T02:46:46.669Z,45.00
2019-05-23T02:47:46.605Z,45.00
2019-05-23T02:48:46.600Z,45.00
2019-05-23T02:49:46.577Z,45.00
2019-05-23T02:50:46.578Z,50.62
2019-05-23T02:51:46.566Z,50.62
2019-05-23T02:52:46.578Z,56.25
2019-05-23T02:53:46.538Z,56.25
2019-05-23T02:54:46.526Z,61.88
2019-05-23T02:55:46.515Z,56.25
2019-05-23T02:56:46.507Z,61.88
2019-05-23T02:57:46.501Z,73.12
2019-05-23T02:58:46.490Z,78.75
2019-05-23T02:59:46.531Z,84.38
2019-05-23T03:00:54.320Z,84.38
2019-05-23T03:01:47.537Z,112.50
2019-05-23T03:02:46.450Z,106.88
2019-05-23T03:03:46.459Z,95.62
2019-05-23T03:04:46.412Z,78.75
2019-05-23T03:05:46.399Z,78.75
2019-05-23T03:06:46.392Z,73.12
2019-05-23T03:07:46.376Z,56.25
2019-05-23T03:08:46.370Z,61.88
2019-05-23T03:09:46.370Z,56.25
2019-05-23T03:10:46.351Z,56.25
2019-05-23T03:11:58.749Z,56.25
2019-05-23T03:12:46.351Z,67.50
2019-05-23T03:13:46.357Z,61.88
2019-05-23T03:14:46.343Z,73.12
2019-05-23T03:15:46.292Z,90.00
2019-05-23T03:16:46.280Z,101.25
2019-05-23T03:17:46.286Z,90.00
2019-05-23T03:18:46.322Z,106.88
2019-05-23T03:19:46.247Z,146.25
2019-05-23T03:20:46.235Z,129.38
2019-05-23T03:21:46.228Z,118.12
2019-05-23T03:22:46.268Z,123.75
2019-05-23T03:23:47.057Z,151.88
2019-05-23T03:24:46.206Z,140.62
2019-05-23T03:25:46.186Z,101.25
2019-05-23T03:26:46.173Z,95.62
2019-05-23T03:27:46.160Z,106.88
2019-05-23T03:28:46.147Z,112.50
2019-05-23T03:29:46.137Z,163.12
2019-05-23T03:30:46.135Z,163.12
2019-05-23T03:31:46.111Z,163.12
2019-05-23T03:32:46.134Z,140.62
2019-05-23T03:33:46.094Z,123.75
2019-05-23T03:34:46.094Z,106.88
2019-05-23T03:35:46.310Z,95.62
2019-05-23T03:36:46.066Z,106.88
2019-05-23T03:37:46.046Z,157.50
2019-05-23T03:38:46.033Z,157.50
2019-05-23T03:39:46.047Z,123.75
2019-05-23T03:40:46.023Z,106.88
2019-05-23T03:41:46.021Z,84.38
2019-05-23T03:42:58.739Z,95.62
2019-05-23T03:43:45.984Z,123.75
2019-05-23T03:44:45.966Z,90.00
2019-05-23T03:45:45.998Z,95.62
2019-05-23T03:46:45.953Z,95.62
2019-05-23T03:47:45.955Z,95.62
2019-05-23T03:48:45.932Z,101.25
2019-05-23T03:49:54.494Z,95.62
2019-05-23T03:50:45.911Z,84.38
2019-05-23T03:51:45.908Z,90.00
2019-05-23T03:52:45.895Z,95.62
2019-05-23T03:53:45.873Z,101.25
2019-05-23T03:54:45.870Z,95.62
2019-05-23T03:55:45.849Z,95.62
2019-05-23T03:56:45.865Z,101.25
2019-05-23T03:57:45.829Z,106.88
2019-05-23T03:58:45.813Z,106.88
2019-05-23T03:59:45.804Z,101.25
2019-05-23T04:00:45.795Z,90.00
2019-05-23T04:01:48.279Z,90.00
2019-05-23T04:02:45.821Z,95.62
2019-05-23T04:03:45.775Z,95.62
2019-05-23T04:04:45.758Z,90.00
2019-05-23T04:05:45.752Z,84.38
2019-05-23T04:06:45.849Z,78.75
2019-05-23T04:07:45.815Z,73.12
2019-05-23T04:08:46.155Z,73.12
2019-05-23T04:09:45.709Z,67.50
2019-05-23T04:10:45.678Z,67.50
2019-05-23T04:11:45.788Z,67.50
2019-05-23T04:12:45.663Z,56.25
2019-05-23T04:13:45.663Z,61.88
2019-05-23T04:14:45.637Z,56.25
2019-05-23T04:15:45.631Z,56.25
2019-05-23T04:16:45.628Z,56.25
2019-05-23T04:17:45.638Z,61.88
2019-05-23T04:18:45.592Z,67.50
2019-05-23T04:19:45.593Z,73.12
2019-05-23T04:20:58.367Z,67.50
2019-05-23T04:21:45.594Z,67.50
2019-05-23T04:22:45.553Z,61.88
2019-05-23T04:23:45.629Z,61.88
2019-05-23T04:24:45.524Z,61.88
2019-05-23T04:25:45.568Z,61.88
2019-05-23T04:26:45.528Z,67.50
2019-05-23T04:27:45.523Z,73.12
2019-05-23T04:28:45.755Z,73.12
2019-05-23T04:29:45.476Z,78.75
2019-05-23T04:30:45.504Z,78.75
2019-05-23T04:31:45.470Z,78.75
2019-05-23T04:32:45.439Z,84.38
2019-05-23T04:33:45.427Z,95.62
2019-05-23T04:34:45.430Z,101.25
2019-05-23T04:35:45.452Z,84.38
2019-05-23T04:36:45.394Z,84.38
2019-05-23T04:37:45.402Z,84.38
2019-05-23T04:38:45.396Z,90.00
2019-05-23T04:39:45.363Z,90.00
2019-05-23T04:40:45.423Z,84.38
2019-05-23T04:41:45.354Z,84.38
2019-05-23T04:42:45.332Z,90.00
2019-05-23T04:43:45.334Z,90.00
2019-05-23T04:44:45.326Z,90.00
2019-05-23T04:45:45.305Z,84.38
2019-05-23T04:46:45.385Z,84.38
2019-05-23T04:47:45.276Z,84.38
2019-05-23T04:48:45.298Z,90.00
2019-05-23T04:49:45.262Z,101.25
2019-05-23T04:50:45.243Z,101.25
2019-05-23T04:51:57.697Z,101.25
2019-05-23T04:52:45.249Z,112.50
2019-05-23T04:53:45.363Z,118.12
2019-05-23T04:54:45.291Z,106.88
2019-05-23T04:55:45.202Z,101.25
2019-05-23T04:56:45.549Z,101.25
2019-05-23T04:57:45.180Z,101.25
2019-05-23T04:58:45.181Z,101.25
2019-05-23T04:59:45.197Z,101.25
2019-05-23T05:00:45.141Z,112.50
2019-05-23T05:01:45.139Z,123.75
2019-05-23T05:02:45.156Z,146.25
2019-05-23T05:03:45.113Z,135.00
2019-05-23T05:04:45.098Z,135.00
2019-05-23T05:05:45.104Z,140.62
2019-05-23T05:06:45.089Z,146.25
2019-05-23T05:07:45.096Z,168.75
2019-05-23T05:08:45.124Z,151.88
2019-05-23T05:09:45.062Z,129.38
2019-05-23T05:10:45.036Z,129.38
2019-05-23T05:11:45.016Z,129.38
2019-05-23T05:12:45.014Z,135.00
2019-05-23T05:13:45.126Z,118.12
2019-05-23T05:14:44.992Z,106.88
2019-05-23T05:15:44.977Z,106.88
2019-05-23T05:16:44.962Z,106.88
2019-05-23T05:17:44.972Z,101.25
2019-05-23T05:18:44.948Z,95.62
2019-05-23T05:19:45.114Z,90.00
2019-05-23T05:20:44.926Z,90.00
2019-05-23T05:21:44.969Z,95.62
2019-05-23T05:22:57.616Z,95.62
2019-05-23T05:23:44.982Z,95.62
2019-05-23T05:24:44.896Z,95.62
2019-05-23T05:25:44.925Z,106.88
2019-05-23T05:26:44.856Z,112.50
2019-05-23T05:27:44.918Z,101.25
2019-05-23T05:28:44.856Z,106.88
2019-05-23T05:29:44.859Z,101.25
2019-05-23T05:30:44.825Z,101.25
2019-05-23T05:31:44.824Z,90.00
2019-05-23T05:32:45.795Z,90.00
2019-05-23T05:33:44.785Z,90.00
2019-05-23T05:34:44.782Z,90.00
2019-05-23T05:35:44.772Z,101.25
2019-05-23T05:36:44.762Z,112.50
2019-05-23T05:37:44.763Z,118.12
2019-05-23T05:38:44.734Z,129.38
2019-05-23T05:39:44.719Z,129.38
2019-05-23T05:40:44.716Z,129.38
2019-05-23T05:41:44.710Z,129.38
2019-05-23T05:42:44.684Z,135.00
2019-05-23T05:43:44.677Z,146.25
2019-05-23T05:44:44.789Z,151.88
2019-05-23T05:45:44.666Z,151.88
2019-05-23T05:46:44.695Z,151.88
2019-05-23T05:47:44.642Z,151.88
2019-05-23T05:48:44.645Z,151.88
2019-05-23T05:49:44.616Z,140.62
2019-05-23T05:50:44.620Z,146.25
2019-05-23T05:51:44.604Z,151.88
2019-05-23T05:52:44.635Z,151.88
2019-05-23T05:53:57.375Z,157.50
2019-05-23T05:54:44.581Z,151.88
2019-05-23T05:55:44.703Z,146.25
2019-05-23T05:56:44.565Z,140.62
2019-05-23T05:57:44.559Z,146.25
2019-05-23T05:58:44.562Z,146.25
2019-05-23T05:59:44.553Z,146.25
2019-05-23T06:00:44.562Z,151.88
2019-05-23T06:01:44.491Z,151.88
2019-05-23T06:03:00.809Z,146.25
2019-05-23T06:03:45.490Z,140.62
2019-05-23T06:04:44.445Z,146.25
2019-05-23T06:05:44.512Z,146.25
2019-05-23T06:06:44.541Z,146.25
2019-05-23T06:07:44.416Z,146.25
2019-05-23T06:08:44.415Z,146.25
2019-05-23T06:09:44.504Z,146.25
2019-05-23T06:10:44.400Z,146.25
2019-05-23T06:11:44.376Z,146.25
2019-05-23T06:12:44.396Z,151.88
2019-05-23T06:13:44.425Z,146.25
2019-05-23T06:14:46.634Z,146.25
2019-05-23T06:15:45.217Z,151.88
2019-05-23T06:16:44.354Z,157.50
2019-05-23T06:17:44.388Z,168.75
2019-05-23T06:18:45.848Z,168.75
2019-05-23T06:19:44.484Z,174.38
2019-05-23T06:20:44.337Z,168.75
2019-05-23T06:21:44.274Z,163.12
2019-05-23T06:22:44.494Z,146.25
2019-05-23T06:23:44.276Z,129.38
2019-05-23T06:24:58.189Z,140.62
2019-05-23T06:25:44.214Z,140.62
2019-05-23T06:26:44.203Z,140.62
2019-05-23T06:27:44.211Z,146.25
2019-05-23T06:28:44.195Z,140.62
2019-05-23T06:29:44.187Z,151.88
2019-05-23T06:30:44.163Z,151.88
2019-05-23T06:31:44.192Z,157.50
2019-05-23T06:32:44.200Z,168.75
2019-05-23T06:33:44.147Z,180.00
2019-05-23T06:34:44.126Z,180.00
2019-05-23T06:35:44.114Z,180.00
2019-05-23T06:36:44.107Z,163.12
2019-05-23T06:37:44.079Z,157.50
2019-05-23T06:38:44.089Z,163.12
2019-05-23T06:39:44.176Z,157.50
2019-05-23T06:40:44.092Z,151.88
2019-05-23T06:41:44.064Z,174.38
2019-05-23T06:42:44.307Z,180.00
2019-05-23T06:43:44.018Z,180.00
2019-05-23T06:44:44.015Z,180.00
2019-05-23T06:45:44.046Z,174.38
2019-05-23T06:46:43.988Z,174.38
2019-05-23T06:47:43.986Z,174.38
2019-05-23T06:48:45.769Z,174.38
2019-05-23T06:49:43.952Z,180.00
2019-05-23T06:50:43.951Z,191.25
2019-05-23T06:51:43.934Z,191.25
2019-05-23T06:52:43.927Z,191.25
2019-05-23T06:53:43.921Z,196.88
2019-05-23T06:54:43.902Z,213.75
2019-05-23T06:55:56.841Z,225.00
2019-05-23T06:56:43.898Z,230.62
2019-05-23T06:57:43.866Z,225.00
2019-05-23T06:58:43.855Z,213.75
2019-05-23T06:59:43.846Z,208.12
2019-05-23T07:00:43.844Z,202.50
2019-05-23T07:01:43.850Z,191.25
2019-05-23T07:02:43.841Z,174.38
2019-05-23T07:03:44.194Z,168.75
2019-05-23T07:04:43.819Z,180.00
2019-05-23T07:05:43.853Z,185.62
2019-05-23T07:06:44.000Z,191.25
2019-05-23T07:07:43.770Z,191.25
2019-05-23T07:08:43.761Z,185.62
2019-05-23T07:09:43.775Z,185.62
2019-05-23T07:10:44.683Z,191.25
2019-05-23T07:11:43.767Z,202.50
2019-05-23T07:12:43.783Z,202.50
2019-05-23T07:13:43.808Z,202.50
2019-05-23T07:14:43.686Z,196.88
2019-05-23T07:15:43.669Z,208.12
2019-05-23T07:16:43.676Z,213.75
2019-05-23T07:17:43.647Z,213.75
2019-05-23T07:18:43.864Z,219.38
2019-05-23T07:19:43.629Z,230.62
2019-05-23T07:20:43.620Z,230.62
2019-05-23T07:21:43.612Z,219.38
2019-05-23T07:22:43.594Z,219.38
2019-05-23T07:23:43.590Z,213.75
2019-05-23T07:24:57.417Z,196.88
2019-05-23T07:25:44.571Z,196.88
2019-05-23T07:26:55.153Z,196.88
2019-05-23T07:27:43.540Z,191.25
2019-05-23T07:28:43.542Z,191.25
2019-05-23T07:29:43.562Z,191.25
2019-05-23T07:30:43.505Z,202.50
2019-05-23T07:31:43.498Z,202.50
2019-05-23T07:32:43.520Z,202.50
2019-05-23T07:34:00.315Z,202.50
2019-05-23T07:34:44.484Z,208.12
2019-05-23T07:35:43.456Z,213.75
2019-05-23T07:36:43.563Z,225.00
2019-05-23T07:37:43.438Z,253.12
2019-05-23T07:38:43.446Z,303.75
2019-05-23T07:39:43.415Z,354.38
2019-05-23T07:40:43.442Z,360.00
2019-05-23T07:41:43.389Z,326.25
2019-05-23T07:42:43.384Z,320.62
2019-05-23T07:43:43.438Z,320.62
2019-05-23T07:44:48.226Z,303.75
2019-05-23T07:45:44.349Z,286.88
2019-05-23T07:46:43.397Z,275.62
2019-05-23T07:47:43.357Z,270.00
2019-05-23T07:48:43.314Z,270.00
2019-05-23T07:49:43.302Z,275.62
2019-05-23T07:50:43.346Z,281.25
2019-05-23T07:51:43.349Z,292.50
2019-05-23T07:52:43.275Z,303.75
2019-05-23T07:53:44.176Z,331.88
2019-05-23T07:54:43.255Z,337.50
2019-05-23T07:55:43.235Z,331.88
2019-05-23T07:56:43.281Z,337.50
2019-05-23T07:57:56.069Z,365.62
2019-05-23T07:58:43.210Z,371.25
2019-05-23T07:59:43.252Z,399.38
2019-05-23T08:00:43.187Z,382.50
2019-05-23T08:01:43.368Z,354.38
2019-05-23T08:02:43.245Z,331.88
2019-05-23T08:03:43.188Z,331.88
2019-05-23T08:04:43.207Z,331.88
2019-05-23T08:05:43.143Z,331.88
2019-05-23T08:06:43.140Z,337.50
2019-05-23T08:07:43.497Z,337.50
2019-05-23T08:08:43.100Z,337.50
2019-05-23T08:09:43.123Z,348.75
2019-05-23T08:10:43.079Z,371.25
2019-05-23T08:11:43.065Z,399.38
2019-05-23T08:12:43.056Z,405.00
2019-05-23T08:13:43.058Z,421.88
2019-05-23T08:14:43.032Z,427.50
2019-05-23T08:15:43.029Z,433.12
2019-05-23T08:16:43.029Z,438.75
2019-05-23T08:17:43.042Z,450.00
2019-05-23T08:18:42.988Z,450.00
2019-05-23T08:19:49.512Z,444.38
2019-05-23T08:20:43.966Z,433.12
2019-05-23T08:21:42.955Z,416.25
2019-05-23T08:22:42.951Z,410.62
2019-05-23T08:23:42.952Z,405.00
2019-05-23T08:24:42.934Z,405.00
2019-05-23T08:25:43.002Z,393.75
2019-05-23T08:26:42.900Z,388.12
2019-05-23T08:27:42.925Z,382.50
2019-05-23T08:29:22.191Z,393.75
2019-05-23T08:29:43.915Z,405.00
2019-05-23T08:30:42.879Z,416.25
2019-05-23T08:31:42.945Z,421.88
2019-05-23T08:32:42.835Z,421.88
2019-05-23T08:33:42.825Z,427.50
2019-05-23T08:34:43.086Z,438.75
2019-05-23T08:35:42.808Z,461.25
2019-05-23T08:36:42.796Z,450.00
2019-05-23T08:37:42.774Z,427.50
2019-05-23T08:38:42.764Z,427.50
2019-05-23T08:39:42.767Z,416.25
2019-05-23T08:40:42.743Z,410.62
2019-05-23T08:41:42.729Z,416.25
2019-05-23T08:42:42.731Z,421.88
2019-05-23T08:43:42.721Z,427.50
2019-05-23T08:44:42.703Z,427.50
2019-05-23T08:45:42.706Z,444.38
2019-05-23T08:46:42.673Z,455.62
2019-05-23T08:47:42.674Z,466.88
2019-05-23T08:48:42.696Z,478.12
2019-05-23T08:49:43.676Z,500.62
2019-05-23T08:50:42.798Z,511.88
2019-05-23T08:51:42.728Z,506.25
2019-05-23T08:52:42.707Z,472.50
2019-05-23T08:53:42.600Z,450.00
2019-05-23T08:54:42.631Z,450.00
2019-05-23T08:55:42.636Z,421.88
2019-05-23T08:56:42.668Z,360.00
2019-05-23T08:57:42.677Z,365.62
2019-05-23T08:58:42.558Z,410.62
2019-05-23T08:59:54.996Z,410.62
2019-05-23T09:00:44.163Z,410.62
2019-05-23T09:01:47.626Z,421.88
2019-05-23T09:02:42.502Z,433.12
2019-05-23T09:03:42.495Z,433.12
2019-05-23T09:05:02.419Z,416.25
2019-05-23T09:05:43.474Z,410.62
2019-05-23T09:06:42.550Z,421.88
2019-05-23T09:07:42.950Z,427.50
2019-05-23T09:08:42.474Z,444.38
2019-05-23T09:09:42.458Z,461.25
2019-05-23T09:10:43.493Z,461.25
2019-05-23T09:11:42.994Z,450.00
2019-05-23T09:12:42.436Z,427.50
2019-05-23T09:13:42.391Z,421.88
2019-05-23T09:14:42.372Z,444.38
2019-05-23T09:15:42.701Z,483.75
2019-05-23T09:16:42.365Z,495.00
2019-05-23T09:17:52.507Z,478.12
2019-05-23T09:18:43.360Z,478.12
2019-05-23T09:19:42.332Z,489.38
2019-05-23T09:20:42.453Z,478.12
2019-05-23T09:21:43.629Z,472.50
2019-05-23T09:22:42.521Z,483.75
2019-05-23T09:23:49.777Z,500.62
2019-05-23T09:24:42.267Z,506.25
2019-05-23T09:25:42.252Z,506.25
2019-05-23T09:26:42.255Z,500.62
2019-05-23T09:27:42.236Z,483.75
2019-05-23T09:28:42.231Z,478.12
2019-05-23T09:29:42.204Z,466.88
2019-05-23T09:30:42.273Z,461.25
2019-05-23T09:31:42.197Z,455.62
2019-05-23T09:32:42.277Z,450.00
2019-05-23T09:33:42.192Z,455.62
2019-05-23T09:34:42.166Z,466.88
2019-05-23T09:35:42.137Z,478.12
2019-05-23T09:36:42.144Z,483.75
2019-05-23T09:37:42.123Z,483.75
2019-05-23T09:38:42.109Z,483.75
2019-05-23T09:39:42.125Z,483.75
2019-05-23T09:40:42.090Z,478.12
2019-05-23T09:41:42.078Z,483.75
2019-05-23T09:42:42.063Z,478.12
2019-05-23T09:43:42.057Z,483.75
2019-05-23T09:44:42.149Z,495.00
2019-05-23T09:45:42.027Z,506.25
2019-05-23T09:46:42.025Z,517.50
2019-05-23T09:47:42.008Z,511.88
2019-05-23T09:48:42.048Z,506.25
2019-05-23T09:49:42.061Z,511.88
2019-05-23T09:50:41.999Z,528.75
2019-05-23T09:51:41.964Z,630.00
2019-05-23T09:52:41.947Z,545.62
2019-05-23T09:53:47.068Z,534.38
2019-05-23T09:55:57.251Z,461.25
2019-05-23T09:56:57.210Z,478.12
2019-05-23T09:57:57.210Z,500.62
2019-05-23T09:58:57.190Z,511.88
2019-05-23T09:59:57.294Z,500.62
2019-05-23T10:00:57.185Z,478.12
2019-05-23T10:01:57.255Z,472.50
2019-05-23T10:02:57.170Z,455.62
2019-05-23T10:03:57.138Z,433.12
2019-05-23T10:04:57.159Z,444.38
2019-05-23T10:05:57.262Z,455.62
2019-05-23T10:06:57.158Z,461.25
2019-05-23T10:07:57.104Z,450.00
2019-05-23T10:08:57.079Z,444.38
2019-05-23T10:09:57.074Z,376.88
2019-05-23T10:10:57.077Z,348.75
2019-05-23T10:11:57.055Z,337.50
2019-05-23T10:12:57.035Z,348.75
2019-05-23T10:13:57.062Z,371.25
2019-05-23T10:14:57.025Z,393.75
2019-05-23T10:15:57.022Z,410.62
2019-05-23T10:16:57.023Z,427.50
2019-05-23T10:18:00.558Z,455.62
2019-05-23T10:18:56.974Z,455.62
2019-05-23T10:19:56.958Z,444.38
2019-05-23T10:20:56.965Z,461.25
2019-05-23T10:21:56.960Z,495.00
2019-05-23T10:22:56.960Z,489.38
2019-05-23T10:23:56.915Z,523.12
2019-05-23T10:24:56.902Z,534.38
2019-05-23T10:26:08.787Z,495.00
2019-05-23T10:26:56.884Z,455.62
2019-05-23T10:27:56.870Z,472.50
2019-05-23T10:28:56.868Z,450.00
2019-05-23T10:29:56.871Z,495.00
2019-05-23T10:30:56.868Z,450.00
2019-05-23T10:31:56.830Z,500.62
2019-05-23T10:32:56.824Z,523.12
2019-05-23T10:33:56.806Z,551.25
2019-05-23T10:34:56.830Z,585.00
2019-05-23T10:36:00.810Z,573.75
2019-05-23T10:36:56.874Z,568.12
2019-05-23T10:37:56.778Z,590.62
2019-05-23T10:38:56.758Z,635.62
2019-05-23T10:39:56.736Z,573.75
2019-05-23T10:40:56.901Z,590.62
2019-05-23T10:41:56.718Z,686.25
2019-05-23T10:42:56.702Z,703.12
2019-05-23T10:43:56.695Z,618.75
2019-05-23T10:44:56.736Z,601.88
2019-05-23T10:45:56.669Z,596.25
2019-05-23T10:46:56.682Z,590.62
2019-05-23T10:47:56.669Z,590.62
2019-05-23T10:48:56.664Z,573.75
2019-05-23T10:49:56.648Z,545.62
2019-05-23T10:50:56.710Z,511.88
2019-05-23T10:51:56.603Z,506.25
2019-05-23T10:52:56.596Z,511.88
2019-05-23T10:53:56.588Z,472.50
2019-05-23T10:54:56.580Z,427.50
2019-05-23T10:55:56.589Z,410.62
2019-05-23T10:57:08.915Z,410.62
2019-05-23T10:57:56.536Z,405.00
2019-05-23T10:58:56.523Z,410.62
2019-05-23T10:59:56.525Z,410.62
2019-05-23T11:00:56.538Z,410.62
2019-05-23T11:01:56.499Z,410.62
2019-05-23T11:02:56.510Z,399.38
2019-05-23T11:03:56.476Z,393.75
2019-05-23T11:04:56.486Z,393.75
2019-05-23T11:05:56.451Z,393.75
2019-05-23T11:06:56.453Z,388.12
2019-05-23T11:07:56.460Z,376.88
2019-05-23T11:08:56.418Z,371.25
2019-05-23T11:09:56.410Z,360.00
2019-05-23T11:10:56.395Z,348.75
2019-05-23T11:11:56.432Z,343.12
2019-05-23T11:12:56.409Z,337.50
2019-05-23T11:13:56.375Z,337.50
2019-05-23T11:14:56.358Z,343.12
2019-05-23T11:15:56.343Z,343.12
2019-05-23T11:16:56.332Z,343.12
2019-05-23T11:17:56.324Z,343.12
2019-05-23T11:18:56.328Z,343.12
2019-05-23T11:19:56.307Z,343.12
2019-05-23T11:20:56.283Z,343.12
2019-05-23T11:21:56.277Z,354.38
2019-05-23T11:22:56.262Z,376.88
2019-05-23T11:23:56.248Z,421.88
2019-05-23T11:24:56.286Z,466.88
2019-05-23T11:25:56.234Z,483.75
2019-05-23T11:26:56.220Z,495.00
2019-05-23T11:28:09.428Z,489.38
2019-05-23T11:28:56.193Z,495.00
2019-05-23T11:29:56.186Z,500.62
2019-05-23T11:30:56.186Z,545.62
2019-05-23T11:31:56.166Z,511.88
2019-05-23T11:32:56.159Z,472.50
2019-05-23T11:33:56.140Z,466.88
2019-05-23T11:34:56.132Z,478.12
2019-05-23T11:35:56.133Z,523.12
2019-05-23T11:36:56.109Z,495.00
2019-05-23T11:37:56.098Z,495.00
2019-05-23T11:38:56.090Z,478.12
2019-05-23T11:39:56.069Z,466.88
2019-05-23T11:40:56.143Z,455.62
2019-05-23T11:41:56.059Z,450.00
2019-05-23T11:42:56.043Z,450.00
2019-05-23T11:43:56.040Z,450.00
2019-05-23T11:46:12.338Z,444.38
2019-05-23T11:47:12.255Z,461.25
2019-05-23T11:48:15.788Z,438.75
2019-05-23T11:49:12.244Z,444.38
2019-05-23T11:50:12.208Z,444.38
2019-05-23T11:51:12.200Z,478.12
2019-05-23T11:52:12.242Z,478.12
2019-05-23T11:53:12.195Z,455.62
2019-05-23T11:54:12.232Z,438.75
2019-05-23T11:55:12.917Z,433.12
2019-05-23T11:56:12.163Z,433.12
2019-05-23T11:57:12.161Z,433.12
2019-05-23T11:58:12.128Z,427.50
2019-05-23T11:59:12.107Z,427.50
2019-05-23T12:00:12.093Z,427.50
2019-05-23T12:01:19.857Z,421.88
2019-05-23T12:02:13.086Z,421.88
2019-05-23T12:03:12.076Z,421.88
2019-05-23T12:04:12.209Z,416.25
2019-05-23T12:05:12.048Z,416.25
2019-05-23T12:06:12.027Z,416.25
2019-05-23T12:07:12.025Z,416.25
2019-05-23T12:08:12.023Z,416.25
2019-05-23T12:09:12.093Z,416.25
2019-05-23T12:10:11.991Z,421.88
2019-05-23T12:11:11.973Z,433.12
2019-05-23T12:12:11.966Z,438.75
2019-05-23T12:13:11.951Z,438.75
2019-05-23T12:14:11.951Z,438.75
2019-05-23T12:15:11.938Z,433.12
2019-05-23T12:16:20.431Z,421.88
2019-05-23T12:17:11.909Z,421.88
2019-05-23T12:18:11.898Z,416.25
2019-05-23T12:19:11.893Z,416.25
2019-05-23T12:20:11.981Z,405.00
2019-05-23T12:21:11.870Z,393.75
2019-05-23T12:22:11.864Z,388.12
2019-05-23T12:23:11.843Z,382.50
2019-05-23T12:24:11.868Z,376.88
2019-05-23T12:25:22.205Z,371.25
2019-05-23T12:26:12.815Z,365.62
2019-05-23T12:27:11.800Z,365.62
2019-05-23T12:28:11.798Z,371.25
2019-05-23T12:29:11.771Z,371.25
2019-05-23T12:30:11.769Z,371.25
2019-05-23T12:31:11.748Z,371.25
2019-05-23T12:32:11.736Z,376.88
2019-05-23T12:33:11.734Z,376.88
2019-05-23T12:34:11.725Z,382.50
2019-05-23T12:35:12.150Z,382.50
2019-05-23T12:36:11.694Z,382.50
2019-05-23T12:37:18.918Z,376.88
2019-05-23T12:38:12.737Z,376.88
2019-05-23T12:39:11.671Z,376.88
2019-05-23T12:40:11.668Z,371.25
2019-05-23T12:41:11.667Z,371.25
2019-05-23T12:42:11.649Z,371.25
2019-05-23T12:43:11.631Z,371.25